CheckWX is a tool to help pilots better visualize weather data.  It is not intended as a substitute for an official pre-flight weather briefing.

21:14:23 UTC

KBQK METAR
Brunswick Golden Isles Airport
Brunswick, Georgia, USA
Current

19 mins ago

KBQK 232055Z AUTO 11011G15KT 10SM CLR 29/19 A3021 RMK AO2 T02890195
Observed
May-23 @ 20:55 UTC
Wind
  • 110° at 11 KTS
  • Gusting to 15 KTS
Visibility
10 SM
Flight Rules
VFR
Cloud Levels
  • Clear skies
Temperature
29°C / 84°F
Dewpoint
20°C / 68°F
Heat Index
31°C / 87°F
Humidity
58%
Altimeter
30.21" Hg
Pressure
1023.02 hPa
Previous

39 mins ago

KBQK 232035Z AUTO 10010KT 10SM SCT032 29/19 A3021 RMK AO2 T02880194
Observed
May-23 @ 20:35 UTC
Wind
  • 100° at 10 KTS
Visibility
10 SM
Flight Rules
VFR
Cloud Levels
  • Scattered at 3,200' AGL
Temperature
29°C / 84°F
Dewpoint
19°C / 66°F
Heat Index
30°C / 86°F
Humidity
55%
Altimeter
30.21" Hg
Pressure
1023.02 hPa
Previous

2 hours ago

KBQK 231915Z AUTO 10009KT 10SM SCT032 29/20 A3023 RMK AO2 T02920199
Observed
May-23 @ 19:15 UTC
Wind
  • 100° at 9 KTS
Visibility
10 SM
Flight Rules
VFR
Cloud Levels
  • Scattered at 3,200' AGL
Temperature
29°C / 84°F
Dewpoint
20°C / 68°F
Heat Index
31°C / 87°F
Humidity
58%
Altimeter
30.23" Hg
Pressure
1023.72 hPa